Weather at Tanjung Bara Airport

Public forecast

Using degrees Celsius for public forecast. Weather courtesy of forecast.io.

Closest aviation weather report (METAR) to Tanjung Bara Airport

Closest report is Sultan Aji Muhammad Sulaiman Sepinggan International Airport, 118.7 nm (219.8 km) SSW.

2024/07/24 05:30 (retrieved 40 minutes ago)

WALL 240530Z 20006KT 9999 SCT018 30/27 Q1008 NOSIG

Closest aviation forecast (TAF) to Tanjung Bara Airport

Closest forecast is Aji Pangeran Tumenggung Pranoto International Airport, 60.9 nm (112.8 km) SSW.

2024/07/24 06:00 (retrieved 10 minutes ago)

TAF WALL 240500Z 2406/2512 21006KT 9999 SCT018 TAF WALS 240500Z 2406/2418 18006KT 9999 SCT020